createdAt,value
2018-11-07T00:01:01.273Z,10.50
2018-11-07T00:05:05.726Z,10.50
2018-11-07T00:09:09.830Z,10.50
2018-11-07T00:13:13.576Z,10.50
2018-11-07T00:17:17.521Z,10.40
2018-11-07T00:21:21.330Z,10.40
2018-11-07T00:25:25.055Z,10.40
2018-11-07T00:29:28.780Z,10.30
2018-11-07T00:33:32.509Z,10.20
2018-11-07T00:37:36.220Z,10.20
2018-11-07T00:41:40.016Z,10.20
2018-11-07T00:45:43.789Z,10.10
2018-11-07T00:49:47.676Z,10.10
2018-11-07T00:53:51.431Z,10.10
2018-11-07T00:57:55.201Z,10.10
2018-11-07T01:01:58.949Z,10.00
2018-11-07T01:06:02.668Z,10.00
2018-11-07T01:10:07.261Z,10.00
2018-11-07T01:14:10.993Z,9.90
2018-11-07T01:18:14.711Z,9.90
2018-11-07T01:22:18.432Z,9.80
2018-11-07T01:26:22.152Z,9.70
2018-11-07T01:30:25.872Z,9.70
2018-11-07T01:34:29.619Z,9.70
2018-11-07T01:38:33.356Z,9.70
2018-11-07T01:42:37.038Z,9.70
2018-11-07T01:46:40.758Z,9.70
2018-11-07T01:50:44.521Z,9.70
2018-11-07T01:54:48.288Z,9.80
2018-11-07T01:58:52.015Z,9.80
2018-11-07T02:02:55.724Z,9.90
2018-11-07T02:06:59.464Z,9.90
2018-11-07T02:11:03.220Z,10.00
2018-11-07T02:15:07.684Z,10.10
2018-11-07T02:19:11.418Z,10.20
2018-11-07T02:23:15.262Z,10.30
2018-11-07T02:27:19.000Z,10.30
2018-11-07T02:31:22.749Z,10.30
2018-11-07T02:35:33.117Z,10.30
2018-11-07T02:39:36.878Z,10.30
2018-11-07T02:43:40.582Z,10.30
2018-11-07T02:47:44.344Z,10.30
2018-11-07T02:51:48.143Z,10.30
2018-11-07T02:55:51.874Z,10.40
2018-11-07T02:59:55.592Z,10.30
2018-11-07T03:03:59.285Z,10.30
2018-11-07T03:08:03.026Z,10.30
2018-11-07T03:12:06.776Z,10.20
2018-11-07T03:16:10.491Z,10.20
2018-11-07T03:20:14.239Z,10.20
2018-11-07T03:24:17.911Z,10.20
2018-11-07T03:28:21.639Z,10.20
2018-11-07T03:32:25.358Z,10.20
2018-11-07T03:36:29.125Z,10.20
2018-11-07T03:40:32.940Z,10.20
2018-11-07T03:44:36.650Z,10.20
2018-11-07T03:48:40.360Z,10.10
2018-11-07T03:52:44.261Z,10.10
2018-11-07T03:56:48.075Z,10.10
2018-11-07T04:00:53.353Z,10.10
2018-11-07T04:04:57.095Z,10.10
2018-11-07T04:09:00.839Z,10.10
2018-11-07T04:13:04.767Z,10.10
2018-11-07T04:17:08.493Z,10.10
2018-11-07T04:21:12.225Z,10.00
2018-11-07T04:25:15.961Z,10.00
2018-11-07T04:29:19.709Z,10.00
2018-11-07T04:33:23.415Z,9.90
2018-11-07T04:37:27.148Z,9.90
2018-11-07T04:41:30.861Z,9.90
2018-11-07T04:45:34.593Z,9.90
2018-11-07T04:49:38.313Z,9.90
2018-11-07T04:53:42.191Z,10.00
2018-11-07T04:57:45.888Z,10.00
2018-11-07T05:01:49.593Z,10.10
2018-11-07T05:05:53.747Z,10.20
2018-11-07T05:09:57.474Z,10.20
2018-11-07T05:14:01.241Z,10.30
2018-11-07T05:18:04.978Z,10.30
2018-11-07T05:22:08.744Z,10.30
2018-11-07T05:26:12.523Z,10.40
2018-11-07T05:30:16.187Z,10.40
2018-11-07T05:34:19.992Z,10.40
2018-11-07T05:38:23.707Z,10.40
2018-11-07T05:42:27.483Z,10.40
2018-11-07T05:46:31.276Z,10.40
2018-11-07T05:50:35.047Z,10.40
2018-11-07T05:54:38.802Z,10.40
2018-11-07T05:58:42.568Z,10.30
2018-11-07T06:02:46.342Z,9.60
2018-11-07T06:06:50.102Z,10.20
2018-11-07T06:10:53.812Z,10.10
2018-11-07T06:14:57.528Z,10.10
2018-11-07T06:19:01.287Z,10.00
2018-11-07T06:23:05.144Z,10.00
2018-11-07T06:27:08.849Z,10.00
2018-11-07T06:31:12.533Z,10.00
2018-11-07T06:35:16.317Z,10.00
2018-11-07T06:39:20.051Z,10.00
2018-11-07T06:43:23.852Z,10.00
2018-11-07T06:47:27.596Z,10.00
2018-11-07T06:51:31.328Z,10.00
2018-11-07T06:55:35.077Z,10.00
2018-11-07T06:59:38.843Z,10.00
2018-11-07T07:03:42.657Z,10.00
2018-11-07T07:07:46.681Z,10.00
2018-11-07T07:11:50.370Z,10.00
2018-11-07T07:15:54.101Z,10.00
2018-11-07T07:19:57.836Z,10.00
2018-11-07T07:24:01.764Z,10.00
2018-11-07T07:28:05.759Z,10.00
2018-11-07T07:32:09.544Z,10.00
2018-11-07T07:36:13.384Z,10.00
2018-11-07T07:40:17.460Z,10.00
2018-11-07T07:44:21.195Z,10.00
2018-11-07T07:48:24.930Z,10.10
2018-11-07T07:52:28.907Z,10.10
2018-11-07T07:56:32.603Z,10.20
2018-11-07T08:01:05.848Z,10.20
2018-11-07T08:05:09.698Z,10.30
2018-11-07T08:09:14.168Z,10.30
2018-11-07T08:13:17.964Z,10.30
2018-11-07T08:17:21.737Z,10.30
2018-11-07T08:21:25.492Z,10.40
2018-11-07T08:25:29.204Z,10.40
2018-11-07T08:29:32.921Z,10.50
2018-11-07T08:33:36.753Z,10.60
2018-11-07T08:37:41.338Z,10.70
2018-11-07T08:41:45.090Z,10.70
2018-11-07T08:45:48.806Z,10.80
2018-11-07T08:49:52.596Z,10.90
2018-11-07T08:53:56.313Z,11.00
2018-11-07T08:58:00.497Z,11.10
2018-11-07T09:02:04.467Z,11.20
2018-11-07T09:06:08.292Z,11.30
2018-11-07T09:10:13.965Z,11.50
2018-11-07T09:14:17.731Z,11.60
2018-11-07T09:18:21.411Z,11.70
2018-11-07T09:22:25.126Z,11.80
2018-11-07T09:26:28.869Z,12.00
2018-11-07T09:30:32.611Z,12.10
2018-11-07T09:34:36.315Z,12.30
2018-11-07T09:38:39.979Z,12.10
2018-11-07T09:42:44.316Z,12.00
2018-11-07T09:46:48.047Z,12.00
2018-11-07T09:50:51.766Z,12.10
2018-11-07T09:54:55.497Z,12.10
2018-11-07T09:58:59.387Z,12.20
2018-11-07T10:03:03.473Z,12.30
2018-11-07T10:07:07.218Z,12.60
2018-11-07T10:11:11.005Z,12.80
2018-11-07T10:15:15.250Z,13.80
2018-11-07T10:19:19.046Z,13.00
2018-11-07T10:23:22.808Z,12.90
2018-11-07T10:27:26.727Z,12.90
2018-11-07T10:31:30.387Z,13.00
2018-11-07T10:35:34.192Z,13.00
2018-11-07T10:39:37.972Z,13.00
2018-11-07T10:43:41.782Z,13.10
2018-11-07T10:47:46.476Z,13.20
2018-11-07T10:51:50.357Z,13.30
2018-11-07T10:55:54.006Z,13.30
2018-11-07T10:59:57.793Z,13.30
2018-11-07T11:04:01.463Z,13.40
2018-11-07T11:08:05.761Z,13.50
2018-11-07T11:12:09.746Z,13.50
2018-11-07T11:16:13.479Z,13.60
2018-11-07T11:20:17.249Z,13.70
2018-11-07T11:24:21.118Z,13.70
2018-11-07T11:28:24.816Z,13.80
2018-11-07T11:32:28.539Z,13.90
2018-11-07T11:36:32.259Z,13.90
2018-11-07T11:40:36.031Z,14.00
2018-11-07T11:44:39.692Z,14.00
2018-11-07T11:48:43.378Z,14.10
2018-11-07T11:52:48.157Z,14.20
2018-11-07T11:56:51.843Z,14.20
2018-11-07T12:00:55.632Z,14.30
2018-11-07T12:05:04.533Z,14.30
2018-11-07T12:09:08.917Z,14.40
2018-11-07T12:13:12.782Z,14.40
2018-11-07T12:17:16.776Z,14.40
2018-11-07T12:21:20.616Z,14.50
2018-11-07T12:25:24.499Z,14.50
2018-11-07T12:29:28.349Z,14.50
2018-11-07T12:33:32.111Z,14.60
2018-11-07T12:37:35.916Z,14.70
2018-11-07T12:41:39.667Z,14.70
2018-11-07T12:45:43.304Z,14.80
2018-11-07T12:49:47.249Z,15.10
2018-11-07T12:53:51.045Z,15.10
2018-11-07T12:57:54.951Z,15.20
2018-11-07T13:01:58.720Z,15.20
2018-11-07T13:06:02.528Z,15.30
2018-11-07T13:10:08.935Z,15.30
2018-11-07T13:14:12.617Z,15.60
2018-11-07T13:18:16.818Z,15.60
2018-11-07T13:22:20.722Z,15.60
2018-11-07T13:26:24.448Z,15.70
2018-11-07T13:30:28.175Z,15.70
2018-11-07T13:34:31.947Z,15.80
2018-11-07T13:38:36.112Z,15.80
2018-11-07T13:42:39.657Z,15.80
2018-11-07T13:46:43.391Z,15.80
2018-11-07T13:50:47.215Z,15.90
2018-11-07T13:54:50.932Z,15.90
2018-11-07T13:58:54.687Z,15.90
2018-11-07T14:02:59.118Z,15.90
2018-11-07T14:07:02.824Z,15.90
2018-11-07T14:11:06.564Z,15.90
2018-11-07T14:15:12.464Z,15.90
2018-11-07T14:19:16.271Z,15.90
2018-11-07T14:23:20.152Z,15.90
2018-11-07T14:27:24.137Z,15.90
2018-11-07T14:31:27.892Z,15.80
2018-11-07T14:35:31.652Z,15.80
2018-11-07T14:39:35.336Z,15.70
2018-11-07T14:43:39.192Z,15.60
2018-11-07T14:47:43.309Z,15.60
2018-11-07T14:51:47.027Z,15.50
2018-11-07T14:55:50.793Z,15.50
2018-11-07T14:59:54.495Z,15.40
2018-11-07T15:03:58.244Z,15.30
2018-11-07T15:08:01.955Z,15.30
2018-11-07T15:12:06.248Z,15.20
2018-11-07T15:16:09.937Z,15.10
2018-11-07T15:20:14.654Z,15.00
2018-11-07T15:24:18.364Z,14.90
2018-11-07T15:28:22.072Z,14.80
2018-11-07T15:32:25.781Z,14.70
2018-11-07T15:36:29.557Z,14.70
2018-11-07T15:40:33.252Z,14.50
2018-11-07T15:44:36.952Z,14.50
2018-11-07T15:48:40.636Z,14.40
2018-11-07T15:52:44.896Z,14.30
2018-11-07T15:56:48.598Z,14.20
2018-11-07T16:00:52.307Z,14.00
2018-11-07T16:04:56.075Z,14.00
2018-11-07T16:09:04.076Z,13.90
2018-11-07T16:13:08.002Z,13.70
2018-11-07T16:17:11.751Z,13.60
2018-11-07T16:21:15.521Z,13.50
2018-11-07T16:25:19.225Z,13.40
2018-11-07T16:29:22.889Z,13.30
2018-11-07T16:33:27.108Z,13.20
2018-11-07T16:37:30.938Z,13.20
2018-11-07T16:41:35.013Z,13.00
2018-11-07T16:45:38.732Z,12.90
2018-11-07T16:49:42.664Z,12.90
2018-11-07T16:53:46.344Z,12.80
2018-11-07T16:57:50.056Z,12.70
2018-11-07T17:01:53.759Z,12.60
2018-11-07T17:05:57.449Z,12.50
2018-11-07T17:10:01.133Z,12.40
2018-11-07T17:14:05.176Z,12.40
2018-11-07T17:18:08.867Z,12.30
2018-11-07T17:22:12.563Z,12.30
2018-11-07T17:26:22.943Z,12.20
2018-11-07T17:30:26.636Z,12.20
2018-11-07T17:34:30.296Z,12.10
2018-11-07T17:38:34.085Z,12.00
2018-11-07T17:42:38.133Z,11.90
2018-11-07T17:46:41.859Z,11.90
2018-11-07T17:50:45.600Z,11.80
2018-11-07T17:54:49.382Z,11.80
2018-11-07T17:58:53.080Z,11.80
2018-11-07T18:02:56.816Z,11.80
2018-11-07T18:07:00.548Z,11.80
2018-11-07T18:11:04.592Z,11.80
2018-11-07T18:15:09.113Z,11.90
2018-11-07T18:19:13.268Z,11.90
2018-11-07T18:23:17.176Z,11.90
2018-11-07T18:27:21.176Z,12.00
2018-11-07T18:31:24.833Z,12.00
2018-11-07T18:35:28.630Z,12.10
2018-11-07T18:39:32.504Z,12.20
2018-11-07T18:43:36.245Z,12.20
2018-11-07T18:47:41.227Z,12.20
2018-11-07T18:51:44.963Z,12.20
2018-11-07T18:55:48.628Z,12.20
2018-11-07T18:59:52.315Z,12.20
2018-11-07T19:03:56.045Z,12.10
2018-11-07T19:07:59.731Z,12.10
2018-11-07T19:12:03.427Z,12.10
2018-11-07T19:16:07.104Z,12.00
2018-11-07T19:20:12.112Z,11.90
2018-11-07T19:24:15.781Z,11.90
2018-11-07T19:28:19.493Z,11.80
2018-11-07T19:32:23.205Z,11.70
2018-11-07T19:36:26.889Z,11.60
2018-11-07T19:40:30.593Z,11.60
2018-11-07T19:44:34.312Z,11.50
2018-11-07T19:48:38.069Z,11.40
2018-11-07T19:52:41.984Z,11.40
2018-11-07T19:56:45.645Z,11.30
2018-11-07T20:00:49.430Z,11.30
2018-11-07T20:04:53.130Z,11.30
2018-11-07T20:08:56.925Z,11.30
2018-11-07T20:13:00.669Z,11.30
2018-11-07T20:17:04.600Z,11.40
2018-11-07T20:21:08.436Z,11.40
2018-11-07T20:25:13.079Z,11.50
2018-11-07T20:29:16.896Z,11.50
2018-11-07T20:33:20.605Z,11.60
2018-11-07T20:37:24.294Z,11.80
2018-11-07T20:41:28.065Z,11.80
2018-11-07T20:45:31.685Z,11.90
2018-11-07T20:49:35.448Z,12.00
2018-11-07T20:53:39.148Z,12.00
2018-11-07T20:57:42.876Z,12.10
2018-11-07T21:01:46.612Z,12.10
2018-11-07T21:05:50.336Z,12.20
2018-11-07T21:09:54.078Z,12.20
2018-11-07T21:13:57.805Z,12.20
2018-11-07T21:18:01.508Z,12.30
2018-11-07T21:22:08.744Z,12.20
2018-11-07T21:26:12.542Z,12.30
2018-11-07T21:30:16.285Z,12.30
2018-11-07T21:34:19.980Z,12.30
2018-11-07T21:38:23.657Z,12.40
2018-11-07T21:42:27.408Z,12.40
2018-11-07T21:46:31.132Z,12.40
2018-11-07T21:50:34.828Z,12.40
2018-11-07T21:54:38.705Z,12.50
2018-11-07T21:58:42.325Z,12.50
2018-11-07T22:02:46.470Z,12.50
2018-11-07T22:06:50.148Z,12.60
2018-11-07T22:10:53.875Z,12.60
2018-11-07T22:14:57.657Z,12.60
2018-11-07T22:19:01.372Z,12.70
2018-11-07T22:23:05.104Z,12.60
2018-11-07T22:27:08.846Z,12.60
2018-11-07T22:31:12.540Z,12.60
2018-11-07T22:35:17.437Z,12.70
2018-11-07T22:39:21.172Z,12.60
2018-11-07T22:43:24.907Z,12.60
2018-11-07T22:47:28.624Z,12.70
2018-11-07T22:51:32.470Z,12.70
2018-11-07T22:55:36.194Z,12.70
2018-11-07T22:59:40.036Z,12.60
2018-11-07T23:03:44.102Z,12.60
2018-11-07T23:07:48.225Z,12.60
2018-11-07T23:11:51.945Z,12.60
2018-11-07T23:15:55.677Z,12.60
2018-11-07T23:19:59.445Z,12.60
2018-11-07T23:24:03.255Z,12.50
2018-11-07T23:28:07.016Z,12.50
2018-11-07T23:32:10.748Z,12.50
2018-11-07T23:36:14.480Z,12.50
2018-11-07T23:40:18.332Z,12.50
2018-11-07T23:44:22.058Z,12.50
2018-11-07T23:48:25.802Z,12.40
2018-11-07T23:52:34.952Z,12.40
2018-11-07T23:56:38.696Z,12.40
